Time;durP1;ratioP1;P1;durP2;ratioP2;P2;SDS_P1;SDS_P2;PMS_P1;PMS_P2;Temp;Humidity;BMP_temperature;BMP_pressure;BME280_temperature;BME280_humidity;BME280_pressure;Samples;Min_cycle;Max_cycle;Signal;HPM_P1;HPM_P2
2022/10/06 00:02:12;;;;;;;3.20;2.57;;;;;;;;;;5026304;28;20303;-57
2022/10/06 00:04:39;;;;;;;2.30;2.10;;;;;;;;;;5026762;28;20203;-57
2022/10/06 00:07:05;;;;;;;2.90;2.20;;;;;;;;;;5023729;28;20203;-56
2022/10/06 00:09:31;;;;;;;2.53;2.30;;;;;;;;;;5027114;28;20198;-56
2022/10/06 00:11:58;;;;;;;2.40;1.90;;;;;;;;;;5026177;28;20290;-57
2022/10/06 00:14:25;;;;;;;2.17;1.97;;;;;;;;;;5025812;28;20223;-58
2022/10/06 00:16:52;;;;;;;2.90;1.90;;;;;;;;;;5025782;28;20361;-57
2022/10/06 00:19:18;;;;;;;3.30;2.10;;;;;;;;;;5024375;28;20301;-53
2022/10/06 00:21:44;;;;;;;2.43;2.10;;;;;;;;;;5027643;28;20298;-55
2022/10/06 00:24:11;;;;;;;3.33;2.10;;;;;;;;;;5027596;28;20305;-55
2022/10/06 00:26:37;;;;;;;2.30;2.00;;;;;;;;;;5027917;28;20238;-56
2022/10/06 00:29:04;;;;;;;2.17;1.97;;;;;;;;;;5026876;28;20227;-56
2022/10/06 00:31:30;;;;;;;2.67;1.90;;;;;;;;;;5025118;28;21368;-55
2022/10/06 00:33:57;;;;;;;2.80;2.10;;;;;;;;;;5027543;28;20219;-56
2022/10/06 00:36:23;;;;;;;2.53;2.00;;;;;;;;;;5027523;28;20746;-57
2022/10/06 00:38:49;;;;;;;2.97;2.20;;;;;;;;;;5027351;28;20275;-57
2022/10/06 00:41:16;;;;;;;3.23;2.07;;;;;;;;;;5026311;28;20290;-56
2022/10/06 00:43:47;;;;;;;2.20;1.90;;;;;;;;;;5026914;28;20708;-55
2022/10/06 00:46:28;;;;;;;2.47;2.13;;;;;;;;;;5026095;28;20664;-55
2022/10/06 00:49:03;;;;;;;2.30;1.97;;;;;;;;;;5025412;28;20199;-56
2022/10/06 00:51:30;;;;;;;3.57;3.00;;;;;;;;;;5026193;28;20296;-57
2022/10/06 00:53:57;;;;;;;2.57;2.33;;;;;;;;;;5027062;28;20321;-55
2022/10/06 00:56:24;;;;;;;3.43;2.00;;;;;;;;;;5027843;28;20278;-55
2022/10/06 00:58:51;;;;;;;2.83;2.23;;;;;;;;;;5025920;28;20549;-55
2022/10/06 01:01:17;;;;;;;2.27;2.07;;;;;;;;;;5016805;28;20294;-55
2022/10/06 01:03:54;;;;;;;2.50;2.00;;;;;;;;;;5023077;28;20225;-55
2022/10/06 01:06:20;;;;;;;2.93;2.30;;;;;;;;;;5024777;28;20264;-56
2022/10/06 01:08:47;;;;;;;2.30;2.10;;;;;;;;;;5026860;28;20203;-55
2022/10/06 01:11:14;;;;;;;2.07;1.87;;;;;;;;;;5005640;28;20333;-57
2022/10/06 01:13:42;;;;;;;3.07;2.20;;;;;;;;;;5020241;28;20991;-57
2022/10/06 01:16:15;;;;;;;2.67;2.13;;;;;;;;;;5027547;28;20285;-56
2022/10/06 01:18:43;;;;;;;2.60;1.90;;;;;;;;;;5028403;28;20301;-56
2022/10/06 01:21:17;;;;;;;1.90;1.70;;;;;;;;;;5023505;28;20205;-55
2022/10/06 01:23:44;;;;;;;3.53;2.30;;;;;;;;;;5025940;28;20330;-55
2022/10/06 01:26:12;;;;;;;2.40;1.90;;;;;;;;;;5025378;28;20244;-55
2022/10/06 01:28:38;;;;;;;2.20;1.90;;;;;;;;;;5020029;28;20325;-55
2022/10/06 01:31:05;;;;;;;2.40;2.03;;;;;;;;;;5019221;28;20691;-57
2022/10/06 01:33:31;;;;;;;2.97;2.17;;;;;;;;;;5039834;28;20512;-54
2022/10/06 01:35:58;;;;;;;2.27;2.07;;;;;;;;;;5021853;28;20213;-58
2022/10/06 01:38:24;;;;;;;2.10;1.77;;;;;;;;;;5025342;28;20297;-59
2022/10/06 01:40:52;;;;;;;3.60;2.17;;;;;;;;;;5023518;28;20528;-55
2022/10/06 01:43:18;;;;;;;2.40;2.20;;;;;;;;;;5025926;28;20718;-57
2022/10/06 01:45:45;;;;;;;2.43;2.10;;;;;;;;;;5027095;28;20294;-57
2022/10/06 01:48:11;;;;;;;2.60;2.40;;;;;;;;;;5024671;28;20298;-55
2022/10/06 01:50:39;;;;;;;2.70;2.10;;;;;;;;;;5024051;28;20684;-55
2022/10/06 01:53:06;;;;;;;2.50;2.27;;;;;;;;;;5026376;28;21326;-55
2022/10/06 01:55:32;;;;;;;3.10;2.30;;;;;;;;;;5026111;28;20590;-55
2022/10/06 01:57:58;;;;;;;2.67;2.17;;;;;;;;;;5023344;28;20320;-56
2022/10/06 02:00:25;;;;;;;3.10;2.20;;;;;;;;;;5028008;28;20291;-58
2022/10/06 02:02:51;;;;;;;2.43;2.00;;;;;;;;;;5024863;28;20841;-56
2022/10/06 02:05:17;;;;;;;3.73;2.30;;;;;;;;;;5024884;28;20202;-57
2022/10/06 02:07:44;;;;;;;2.43;1.80;;;;;;;;;;5026929;28;20206;-55
2022/10/06 02:10:10;;;;;;;2.13;1.80;;;;;;;;;;5028293;28;20298;-57
2022/10/06 02:12:36;;;;;;;2.43;2.10;;;;;;;;;;5027764;28;20328;-56
2022/10/06 02:15:04;;;;;;;2.30;1.87;;;;;;;;;;5025006;28;20229;-57
2022/10/06 02:17:31;;;;;;;2.10;1.87;;;;;;;;;;5027726;28;20281;-55
2022/10/06 02:19:57;;;;;;;1.70;1.50;;;;;;;;;;5025303;28;20770;-57
2022/10/06 02:22:23;;;;;;;2.37;1.80;;;;;;;;;;5022727;28;20203;-57
2022/10/06 02:24:50;;;;;;;2.50;2.00;;;;;;;;;;5020312;28;20642;-57
2022/10/06 02:27:16;;;;;;;2.27;1.93;;;;;;;;;;5026575;28;20754;-57
2022/10/06 02:29:43;;;;;;;1.90;1.70;;;;;;;;;;5023432;28;20294;-57
2022/10/06 02:32:10;;;;;;;1.77;1.67;;;;;;;;;;5023253;28;20315;-57
2022/10/06 02:34:36;;;;;;;1.60;1.50;;;;;;;;;;5024702;28;20321;-56
2022/10/06 02:37:04;;;;;;;1.70;1.60;;;;;;;;;;5024707;28;20377;-58
2022/10/06 02:39:30;;;;;;;2.13;1.90;;;;;;;;;;5026212;28;20214;-57
2022/10/06 02:41:56;;;;;;;2.00;1.70;;;;;;;;;;5024098;28;20289;-57
2022/10/06 02:44:24;;;;;;;1.70;1.60;;;;;;;;;;5024529;28;20899;-58
2022/10/06 02:46:51;;;;;;;1.90;1.70;;;;;;;;;;5025124;28;20195;-58
2022/10/06 02:49:17;;;;;;;1.80;1.60;;;;;;;;;;5029066;28;20199;-58
2022/10/06 02:51:44;;;;;;;1.90;1.70;;;;;;;;;;5029619;28;20276;-58
2022/10/06 02:54:11;;;;;;;1.80;1.60;;;;;;;;;;5029647;28;20294;-58
2022/10/06 02:56:37;;;;;;;2.30;2.00;;;;;;;;;;5029598;28;20671;-58
2022/10/06 02:59:04;;;;;;;1.70;1.47;;;;;;;;;;5028947;28;21011;-58
2022/10/06 03:01:30;;;;;;;2.57;1.47;;;;;;;;;;5028744;28;20285;-58
2022/10/06 03:03:56;;;;;;;1.50;1.40;;;;;;;;;;5030188;28;20305;-58
2022/10/06 03:06:32;;;;;;;1.53;1.27;;;;;;;;;;5049501;28;20329;-60
2022/10/06 03:09:00;;;;;;;1.50;1.30;;;;;;;;;;5034782;28;20324;-58
2022/10/06 03:11:29;;;;;;;1.60;1.50;;;;;;;;;;5051672;28;21088;-58
2022/10/06 03:13:56;;;;;;;2.50;1.50;;;;;;;;;;5042166;28;20219;-57
2022/10/06 03:16:28;;;;;;;1.60;1.40;;;;;;;;;;5027293;28;20364;-55
2022/10/06 03:18:55;;;;;;;1.60;1.50;;;;;;;;;;5024807;28;20235;-56
2022/10/06 03:21:24;;;;;;;2.53;1.27;;;;;;;;;;5024629;28;20294;-57
2022/10/06 03:23:52;;;;;;;1.70;1.47;;;;;;;;;;5028055;28;20297;-57
2022/10/06 03:26:20;;;;;;;2.07;1.50;;;;;;;;;;5028014;28;20272;-58
2022/10/06 03:28:47;;;;;;;1.67;1.53;;;;;;;;;;5029367;28;20293;-58
2022/10/06 03:31:14;;;;;;;2.20;1.70;;;;;;;;;;5028219;28;20206;-58
2022/10/06 03:33:41;;;;;;;1.90;1.70;;;;;;;;;;5026970;28;20266;-58
2022/10/06 03:36:12;;;;;;;1.73;1.63;;;;;;;;;;5030382;28;20219;-58
2022/10/06 03:38:39;;;;;;;1.50;1.40;;;;;;;;;;5027893;28;20634;-59
2022/10/06 03:41:11;;;;;;;1.30;1.20;;;;;;;;;;5024736;28;20202;-58
2022/10/06 03:43:38;;;;;;;1.63;1.40;;;;;;;;;;5026498;28;20747;-57
2022/10/06 03:46:05;;;;;;;1.57;1.37;;;;;;;;;;5025820;28;20278;-58
2022/10/06 03:48:33;;;;;;;1.47;1.30;;;;;;;;;;5024851;28;20206;-55
2022/10/06 03:51:02;;;;;;;2.10;1.50;;;;;;;;;;5025632;28;20195;-58
2022/10/06 03:53:29;;;;;;;1.70;1.57;;;;;;;;;;5027492;28;20849;-55
2022/10/06 03:56:05;;;;;;;1.97;1.70;;;;;;;;;;5022280;28;20229;-58
2022/10/06 03:58:34;;;;;;;1.60;1.30;;;;;;;;;;5041636;28;20686;-58
2022/10/06 04:01:09;;;;;;;1.57;1.40;;;;;;;;;;5024811;28;20308;-58
2022/10/06 04:03:35;;;;;;;1.80;1.20;;;;;;;;;;5025829;28;20254;-59
2022/10/06 04:06:04;;;;;;;1.63;1.47;;;;;;;;;;5025789;28;20293;-59
2022/10/06 04:08:32;;;;;;;2.40;1.60;;;;;;;;;;5025480;28;21272;-58
2022/10/06 04:11:08;;;;;;;2.30;1.60;;;;;;;;;;5024603;28;20214;-58
2022/10/06 04:13:34;;;;;;;2.00;1.60;;;;;;;;;;5026751;28;20675;-58
2022/10/06 04:16:22;;;;;;;1.67;1.40;;;;;;;;;;5026615;28;20233;-58
2022/10/06 04:18:50;;;;;;;1.57;1.30;;;;;;;;;;5025506;28;20217;-59
2022/10/06 04:21:16;;;;;;;1.40;1.20;;;;;;;;;;5023522;28;20239;-59
2022/10/06 04:23:43;;;;;;;1.47;1.37;;;;;;;;;;5023135;28;20314;-58
2022/10/06 04:26:12;;;;;;;1.43;1.33;;;;;;;;;;5026644;28;20652;-56
2022/10/06 04:28:39;;;;;;;1.63;1.30;;;;;;;;;;5025211;28;20750;-55
2022/10/06 04:31:12;;;;;;;1.93;1.57;;;;;;;;;;5024452;28;20268;-56
2022/10/06 04:33:38;;;;;;;1.77;1.33;;;;;;;;;;5018017;28;20227;-58
2022/10/06 04:36:06;;;;;;;1.73;1.20;;;;;;;;;;5024671;28;20318;-59
2022/10/06 04:38:34;;;;;;;1.13;1.03;;;;;;;;;;5023531;28;20333;-59
2022/10/06 04:41:14;;;;;;;1.20;1.10;;;;;;;;;;5024670;28;20210;-58
2022/10/06 04:43:41;;;;;;;1.07;0.97;;;;;;;;;;5023692;28;20321;-58
2022/10/06 04:46:08;;;;;;;1.70;1.27;;;;;;;;;;5026790;28;20272;-58
2022/10/06 04:48:55;;;;;;;2.80;1.37;;;;;;;;;;5021608;28;20408;-59
2022/10/06 04:51:23;;;;;;;1.70;1.20;;;;;;;;;;5022620;28;20200;-57
2022/10/06 04:53:50;;;;;;;1.40;1.20;;;;;;;;;;5025906;28;20787;-58
2022/10/06 04:56:18;;;;;;;1.87;0.90;;;;;;;;;;5023396;28;20309;-58
2022/10/06 04:58:47;;;;;;;1.73;1.20;;;;;;;;;;5027883;28;20266;-57
2022/10/06 05:01:15;;;;;;;2.13;1.40;;;;;;;;;;5028613;28;20674;-58
2022/10/06 05:03:42;;;;;;;1.70;1.23;;;;;;;;;;5030176;28;20222;-57
2022/10/06 05:06:11;;;;;;;1.93;1.30;;;;;;;;;;5028542;28;20963;-56
2022/10/06 05:08:38;;;;;;;1.40;1.30;;;;;;;;;;5022283;28;20289;-58
2022/10/06 05:11:08;;;;;;;1.80;1.60;;;;;;;;;;5027346;28;20230;-57
2022/10/06 05:13:40;;;;;;;2.90;1.33;;;;;;;;;;5026403;28;20487;-44
2022/10/06 05:16:09;;;;;;;3.53;1.80;;;;;;;;;;5023201;28;20313;-45
2022/10/06 05:18:35;;;;;;;2.30;1.30;;;;;;;;;;5022553;28;20327;-53
2022/10/06 05:21:14;;;;;;;3.90;1.60;;;;;;;;;;5025681;28;20882;-43
2022/10/06 05:23:41;;;;;;;3.00;1.10;;;;;;;;;;5025303;28;20226;-45
2022/10/06 05:26:10;;;;;;;1.50;0.80;;;;;;;;;;5028433;28;20333;-52
2022/10/06 05:28:37;;;;;;;6.27;1.10;;;;;;;;;;5020677;28;20249;-54
2022/10/06 05:31:05;;;;;;;3.13;1.00;;;;;;;;;;5035615;28;20198;-53
2022/10/06 05:33:33;;;;;;;2.67;1.00;;;;;;;;;;5023348;28;20325;-54
2022/10/06 05:36:02;;;;;;;5.60;1.10;;;;;;;;;;5026031;28;20322;-58
2022/10/06 05:38:28;;;;;;;3.73;1.00;;;;;;;;;;5022706;28;20232;-59
2022/10/06 05:41:03;;;;;;;3.47;1.00;;;;;;;;;;5024153;28;20595;-55
2022/10/06 05:43:30;;;;;;;2.80;1.10;;;;;;;;;;5023212;28;20320;-54
2022/10/06 05:45:59;;;;;;;2.30;0.90;;;;;;;;;;5022194;28;20272;-56
2022/10/06 05:48:26;;;;;;;3.13;1.13;;;;;;;;;;5038917;28;20203;-56
2022/10/06 05:51:05;;;;;;;3.43;1.07;;;;;;;;;;5037830;28;20198;-54
2022/10/06 05:53:34;;;;;;;1.37;0.70;;;;;;;;;;5024513;28;20238;-53
2022/10/06 05:56:09;;;;;;;2.80;1.00;;;;;;;;;;5020427;28;20237;-49
2022/10/06 05:58:37;;;;;;;2.03;0.97;;;;;;;;;;5025679;28;20305;-55
2022/10/06 06:01:07;;;;;;;2.20;0.97;;;;;;;;;;5017811;28;20287;-56
2022/10/06 06:03:33;;;;;;;2.00;1.00;;;;;;;;;;5023919;28;20723;-60
2022/10/06 06:06:00;;;;;;;2.72;1.10;;;;;;;;;;5012501;28;20280;-57
2022/10/06 06:08:26;;;;;;;1.38;0.88;;;;;;;;;;5018193;28;20302;-60
2022/10/06 06:10:53;;;;;;;1.33;1.00;;;;;;;;;;5022488;28;20221;-62
2022/10/06 06:13:21;;;;;;;1.67;1.02;;;;;;;;;;5024728;28;20307;-61
2022/10/06 06:15:59;;;;;;;1.98;0.88;;;;;;;;;;5022120;28;20276;-62
2022/10/06 06:18:29;;;;;;;1.50;0.80;;;;;;;;;;5025837;28;20348;-62
2022/10/06 06:21:05;;;;;;;1.70;0.88;;;;;;;;;;5025144;28;20203;-62
2022/10/06 06:23:33;;;;;;;1.77;1.02;;;;;;;;;;5029120;28;20321;-62
2022/10/06 06:26:02;;;;;;;3.10;0.90;;;;;;;;;;5027680;28;20309;-57
2022/10/06 06:28:29;;;;;;;1.67;0.82;;;;;;;;;;5026155;28;21593;-62
2022/10/06 06:31:05;;;;;;;3.75;1.20;;;;;;;;;;5022583;28;20844;-58
2022/10/06 06:33:33;;;;;;;1.23;0.80;;;;;;;;;;5026527;28;20218;-58
2022/10/06 06:36:02;;;;;;;2.58;1.13;;;;;;;;;;5027722;28;20242;-61
2022/10/06 06:38:30;;;;;;;2.50;1.00;;;;;;;;;;5025125;28;20301;-59
2022/10/06 06:40:57;;;;;;;1.50;0.93;;;;;;;;;;5037508;28;20280;-58
2022/10/06 06:43:24;;;;;;;1.63;0.90;;;;;;;;;;5024035;28;20686;-58
2022/10/06 06:45:50;;;;;;;3.33;0.90;;;;;;;;;;5025386;28;20627;-59
2022/10/06 06:48:16;;;;;;;1.98;0.80;;;;;;;;;;5028378;28;20970;-58
2022/10/06 06:50:44;;;;;;;3.42;1.00;;;;;;;;;;5017288;28;20198;-60
2022/10/06 06:53:12;;;;;;;1.10;0.80;;;;;;;;;;5015615;28;20345;-61
2022/10/06 06:55:49;;;;;;;2.88;1.00;;;;;;;;;;5021083;28;20227;-60
2022/10/06 06:58:19;;;;;;;1.52;0.95;;;;;;;;;;5021889;28;20296;-60
2022/10/06 07:00:47;;;;;;;1.17;0.80;;;;;;;;;;5020131;28;20298;-61
2022/10/06 07:03:14;;;;;;;1.80;0.82;;;;;;;;;;5024468;28;20317;-60
2022/10/06 07:06:08;;;;;;;2.30;1.00;;;;;;;;;;5024097;28;20581;-60
2022/10/06 07:08:43;;;;;;;1.58;0.70;;;;;;;;;;5025790;28;20214;-61
2022/10/06 07:11:21;;;;;;;3.42;0.95;;;;;;;;;;5033875;28;20286;-59
2022/10/06 07:13:52;;;;;;;1.52;0.80;;;;;;;;;;5022086;28;21071;-54
2022/10/06 07:27:23;;;;;;;1.13;0.73;;;;;;;;;;5033216;28;20321;-56
2022/10/06 07:29:53;;;;;;;2.33;1.00;;;;;;;;;;5038984;28;20276;-56
2022/10/06 07:32:22;;;;;;;1.80;0.90;;;;;;;;;;5027850;28;20257;-55
2022/10/06 07:34:49;;;;;;;5.57;1.00;;;;;;;;;;5027526;28;20213;-60
2022/10/06 07:37:19;;;;;;;3.22;1.10;;;;;;;;;;5031387;28;20222;-60
2022/10/06 07:39:48;;;;;;;4.28;1.30;;;;;;;;;;5021660;28;20276;-61
2022/10/06 07:42:18;;;;;;;2.00;1.10;;;;;;;;;;5025192;28;20436;-60
2022/10/06 07:47:32;;;;;;;1.98;1.10;;;;;;;;;;5003878;28;20671;-60
2022/10/06 07:49:59;;;;;;;1.70;1.10;;;;;;;;;;5040392;28;20203;-60
2022/10/06 07:52:27;;;;;;;2.83;1.08;;;;;;;;;;5028608;28;20326;-60
2022/10/06 07:54:55;;;;;;;2.65;1.10;;;;;;;;;;5025220;28;20685;-60
2022/10/06 07:57:22;;;;;;;2.10;1.10;;;;;;;;;;5028893;28;20246;-60
2022/10/06 07:59:49;;;;;;;1.60;0.88;;;;;;;;;;5027260;28;20230;-61
2022/10/06 08:02:18;;;;;;;1.63;0.90;;;;;;;;;;5028636;28;20314;-60
2022/10/06 08:04:45;;;;;;;1.05;0.80;;;;;;;;;;5027871;28;20264;-61
2022/10/06 08:07:11;;;;;;;2.50;1.20;;;;;;;;;;5023645;28;20748;-61
2022/10/06 08:09:38;;;;;;;1.55;1.20;;;;;;;;;;5022366;28;20204;-61
2022/10/06 08:12:31;;;;;;;2.20;1.10;;;;;;;;;;5030898;28;20701;-60
2022/10/06 08:14:50;;;;;;;1.42;0.95;;;;;;;;;;5029543;28;20207;-61
2022/10/06 08:17:17;;;;;;;1.63;1.05;;;;;;;;;;5017306;28;20215;-58
2022/10/06 08:19:44;;;;;;;1.35;0.90;;;;;;;;;;5025837;28;20282;-59
2022/10/06 08:22:11;;;;;;;3.15;1.30;;;;;;;;;;5027483;28;20667;-53
2022/10/06 08:24:37;;;;;;;2.92;1.58;;;;;;;;;;5034074;28;20195;-53
2022/10/06 08:27:27;;;;;;;1.67;1.30;;;;;;;;;;5031193;28;20210;-54
2022/10/06 08:29:54;;;;;;;2.38;1.38;;;;;;;;;;5029191;28;20301;-54
2022/10/06 08:32:22;;;;;;;1.80;1.25;;;;;;;;;;5029357;28;20251;-53
2022/10/06 08:34:48;;;;;;;2.00;1.50;;;;;;;;;;5011645;28;20301;-49
2022/10/06 08:37:16;;;;;;;2.20;1.40;;;;;;;;;;5029306;28;20327;-51
2022/10/06 08:39:45;;;;;;;1.83;1.40;;;;;;;;;;5042663;28;20424;-54
2022/10/06 08:42:17;;;;;;;1.92;1.23;;;;;;;;;;5025461;28;20286;-60
2022/10/06 08:44:55;;;;;;;3.28;1.40;;;;;;;;;;5024644;28;20203;-59
2022/10/06 08:47:23;;;;;;;2.40;1.40;;;;;;;;;;5038426;28;20190;-59
2022/10/06 08:49:51;;;;;;;2.20;1.23;;;;;;;;;;5023093;28;21171;-60
2022/10/06 08:52:45;;;;;;;1.80;1.20;;;;;;;;;;5040797;28;21278;-59
2022/10/06 08:55:15;;;;;;;3.38;1.25;;;;;;;;;;5028366;28;20521;-60
2022/10/06 08:57:57;;;;;;;2.55;1.50;;;;;;;;;;5026150;28;20314;-58
2022/10/06 09:00:24;;;;;;;1.98;1.10;;;;;;;;;;5042612;28;20209;-59
2022/10/06 09:02:50;;;;;;;3.17;1.20;;;;;;;;;;5026224;28;20310;-58
2022/10/06 09:05:24;;;;;;;2.13;1.33;;;;;;;;;;5024542;28;20218;-60
2022/10/06 09:08:15;;;;;;;2.00;1.40;;;;;;;;;;5025818;28;20670;-60
2022/10/06 09:11:04;;;;;;;2.17;1.17;;;;;;;;;;5009355;28;20207;-60
2022/10/06 09:13:35;;;;;;;3.30;1.30;;;;;;;;;;5044871;28;20276;-60
2022/10/06 09:16:06;;;;;;;2.22;1.20;;;;;;;;;;5026704;28;20254;-59
2022/10/06 09:18:42;;;;;;;2.15;1.40;;;;;;;;;;5023323;28;20388;-63
2022/10/06 09:22:01;;;;;;;4.00;1.17;;;;;;;;;;5021985;28;20217;-52
2022/10/06 09:24:38;;;;;;;5.65;1.45;;;;;;;;;;5015291;28;20317;-58
2022/10/06 09:27:17;;;;;;;4.03;1.45;;;;;;;;;;5025027;28;20215;-57
2022/10/06 09:29:47;;;;;;;7.43;1.60;;;;;;;;;;5027977;28;20230;-60
2022/10/06 09:32:18;;;;;;;3.33;1.40;;;;;;;;;;5024911;28;20320;-58
2022/10/06 09:34:54;;;;;;;3.38;1.40;;;;;;;;;;5026002;28;20212;-59
2022/10/06 09:37:21;;;;;;;5.18;1.42;;;;;;;;;;5024572;28;20353;-59
2022/10/06 09:39:49;;;;;;;4.55;1.30;;;;;;;;;;5022427;28;20758;-60
2022/10/06 09:42:22;;;;;;;5.05;1.58;;;;;;;;;;5029584;28;20493;-59
2022/10/06 09:44:56;;;;;;;3.50;1.50;;;;;;;;;;5028707;28;21528;-57
2022/10/06 09:47:31;;;;;;;4.53;1.35;;;;;;;;;;5031412;28;20198;-59
2022/10/06 09:50:23;;;;;;;5.70;1.70;;;;;;;;;;5029517;28;20293;-57
2022/10/06 09:52:59;;;;;;;4.13;1.25;;;;;;;;;;5026658;28;20245;-59
2022/10/06 09:55:35;;;;;;;4.97;1.30;;;;;;;;;;5027366;28;20238;-59
2022/10/06 09:58:03;;;;;;;4.38;1.40;;;;;;;;;;5028889;28;20293;-59
2022/10/06 10:00:35;;;;;;;2.45;1.20;;;;;;;;;;5010813;28;20306;-57
2022/10/06 10:03:04;;;;;;;3.45;1.27;;;;;;;;;;5031369;28;20589;-58
2022/10/06 10:05:33;;;;;;;3.70;1.23;;;;;;;;;;5029644;28;20226;-57
2022/10/06 10:08:07;;;;;;;2.25;1.10;;;;;;;;;;5028725;28;20226;-56
2022/10/06 10:10:35;;;;;;;3.45;1.30;;;;;;;;;;5027390;28;20233;-59
2022/10/06 10:13:03;;;;;;;3.70;1.23;;;;;;;;;;5010925;28;20227;-58
2022/10/06 10:15:34;;;;;;;5.60;1.40;;;;;;;;;;5026170;28;20679;-54
2022/10/06 10:18:03;;;;;;;2.97;1.30;;;;;;;;;;5026500;28;20285;-56
2022/10/06 10:20:35;;;;;;;3.30;1.30;;;;;;;;;;5042725;28;20286;-56
2022/10/06 10:23:06;;;;;;;4.30;1.30;;;;;;;;;;5023306;28;20293;-56
2022/10/06 10:26:20;;;;;;;4.22;1.40;;;;;;;;;;5029796;28;20301;-55
2022/10/06 10:28:56;;;;;;;3.83;1.40;;;;;;;;;;4969117;28;20209;-59
2022/10/06 10:32:01;;;;;;;4.57;1.38;;;;;;;;;;5026453;28;20526;-59
2022/10/06 10:34:57;;;;;;;2.65;0.93;;;;;;;;;;4998723;28;20222;-61
2022/10/06 10:37:32;;;;;;;3.03;1.13;;;;;;;;;;4982317;28;20221;-58
2022/10/06 10:40:05;;;;;;;3.42;1.33;;;;;;;;;;5027815;28;20293;-60
2022/10/06 10:42:38;;;;;;;2.03;0.98;;;;;;;;;;5015780;28;20246;-60
2022/10/06 10:45:13;;;;;;;2.80;1.25;;;;;;;;;;5018645;28;20289;-61
2022/10/06 10:47:42;;;;;;;2.10;1.10;;;;;;;;;;5018054;28;20288;-61
2022/10/06 10:50:20;;;;;;;2.92;1.00;;;;;;;;;;5009694;28;20352;-62
2022/10/06 10:52:49;;;;;;;2.15;1.10;;;;;;;;;;5035456;28;20645;-61
2022/10/06 10:55:29;;;;;;;2.97;1.10;;;;;;;;;;5018237;28;20314;-62
2022/10/06 10:57:58;;;;;;;2.45;1.30;;;;;;;;;;5014571;28;20505;-61
2022/10/06 11:00:27;;;;;;;2.92;1.10;;;;;;;;;;5013251;28;20321;-61
2022/10/06 11:02:55;;;;;;;2.30;1.13;;;;;;;;;;5020247;28;20215;-61
2022/10/06 11:06:11;;;;;;;3.55;1.42;;;;;;;;;;5024258;28;20293;-60
2022/10/06 11:08:48;;;;;;;3.35;1.10;;;;;;;;;;4998393;28;20292;-61
2022/10/06 11:11:22;;;;;;;1.70;0.88;;;;;;;;;;5020138;28;20194;-61
2022/10/06 11:13:53;;;;;;;1.88;1.13;;;;;;;;;;5042807;28;21581;-60
2022/10/06 11:16:19;;;;;;;2.88;1.20;;;;;;;;;;5029917;28;20314;-61
2022/10/06 11:19:04;;;;;;;3.20;1.10;;;;;;;;;;5029363;28;20207;-61
2022/10/06 11:21:35;;;;;;;2.92;1.15;;;;;;;;;;5027050;28;20195;-62
2022/10/06 11:24:26;;;;;;;2.88;1.30;;;;;;;;;;5021228;28;20232;-61
2022/10/06 11:27:01;;;;;;;1.83;1.05;;;;;;;;;;5022805;28;20650;-61
2022/10/06 11:29:37;;;;;;;2.17;1.08;;;;;;;;;;5026130;28;20247;-60
2022/10/06 11:32:22;;;;;;;2.67;0.90;;;;;;;;;;5024062;28;20868;-61
2022/10/06 11:34:49;;;;;;;2.53;1.23;;;;;;;;;;5020322;28;20233;-60
2022/10/06 11:37:39;;;;;;;1.98;0.90;;;;;;;;;;5022373;28;21015;-60
2022/10/06 11:40:24;;;;;;;2.55;1.00;;;;;;;;;;5010684;28;20741;-61
2022/10/06 11:43:28;;;;;;;2.47;1.10;;;;;;;;;;5027234;28;20306;-60
2022/10/06 11:46:07;;;;;;;1.90;1.00;;;;;;;;;;5018054;28;20391;-60
2022/10/06 11:48:33;;;;;;;4.00;1.13;;;;;;;;;;5030725;28;20272;-58
2022/10/06 11:51:24;;;;;;;1.98;1.00;;;;;;;;;;5029617;28;20203;-60
2022/10/06 11:53:51;;;;;;;4.43;1.10;;;;;;;;;;5027325;28;20227;-57
2022/10/06 11:56:17;;;;;;;2.60;1.02;;;;;;;;;;5042300;28;20289;-59
2022/10/06 11:58:50;;;;;;;1.45;0.93;;;;;;;;;;5028960;28;20218;-60
2022/10/06 12:01:49;;;;;;;3.08;1.00;;;;;;;;;;5016529;28;20210;-60
2022/10/06 12:04:16;;;;;;;2.60;1.02;;;;;;;;;;5021567;28;20230;-59
2022/10/06 12:06:49;;;;;;;2.60;1.02;;;;;;;;;;5021960;28;20393;-61
2022/10/06 12:09:25;;;;;;;2.15;1.20;;;;;;;;;;5021800;28;20223;-61
2022/10/06 12:11:58;;;;;;;3.03;0.82;;;;;;;;;;5020012;28;20203;-61
2022/10/06 12:14:36;;;;;;;2.28;1.10;;;;;;;;;;5023255;28;20258;-61
2022/10/06 12:17:37;;;;;;;1.92;0.90;;;;;;;;;;5022292;28;20218;-60
2022/10/06 12:20:18;;;;;;;1.85;0.93;;;;;;;;;;5019681;28;20302;-60
2022/10/06 12:22:57;;;;;;;1.60;0.85;;;;;;;;;;5034666;28;20826;-60
2022/10/06 12:25:42;;;;;;;2.60;1.33;;;;;;;;;;5025698;28;20212;-60
2022/10/06 12:28:17;;;;;;;2.63;0.93;;;;;;;;;;5023341;28;20232;-58
2022/10/06 12:30:55;;;;;;;1.92;0.98;;;;;;;;;;5025266;28;20230;-60
2022/10/06 12:33:35;;;;;;;2.58;0.90;;;;;;;;;;5021602;28;20218;-59
2022/10/06 12:36:03;;;;;;;2.13;1.20;;;;;;;;;;5021652;28;20209;-58
2022/10/06 12:38:29;;;;;;;2.20;0.93;;;;;;;;;;5035679;28;20272;-59
2022/10/06 12:40:56;;;;;;;1.60;0.95;;;;;;;;;;5019323;28;20209;-59
2022/10/06 12:43:26;;;;;;;2.00;0.85;;;;;;;;;;5024985;28;20614;-59
2022/10/06 12:46:00;;;;;;;2.50;1.00;;;;;;;;;;5020316;28;20226;-60
2022/10/06 12:48:52;;;;;;;1.63;0.90;;;;;;;;;;5026110;28;20203;-59
2022/10/06 12:51:40;;;;;;;3.50;0.93;;;;;;;;;;5025338;28;20286;-60
2022/10/06 12:54:14;;;;;;;3.45;0.85;;;;;;;;;;5040346;28;20318;-59
2022/10/06 12:56:41;;;;;;;1.33;0.70;;;;;;;;;;5016293;28;20813;-60
2022/10/06 12:59:24;;;;;;;1.75;0.88;;;;;;;;;;5025971;28;20245;-61
2022/10/06 13:02:16;;;;;;;2.05;0.88;;;;;;;;;;5023071;28;20293;-60
2022/10/06 13:04:48;;;;;;;1.70;0.90;;;;;;;;;;5019880;28;20273;-58
2022/10/06 13:07:14;;;;;;;2.00;1.10;;;;;;;;;;5026175;28;20194;-54
2022/10/06 13:09:41;;;;;;;2.05;1.02;;;;;;;;;;5017800;28;20329;-59
2022/10/06 13:12:40;;;;;;;1.95;1.00;;;;;;;;;;5020047;28;20349;-58
2022/10/06 13:15:27;;;;;;;3.03;1.00;;;;;;;;;;5012419;28;20226;-62
2022/10/06 13:17:57;;;;;;;2.35;1.10;;;;;;;;;;5020623;28;20995;-63
2022/10/06 13:20:36;;;;;;;3.60;1.17;;;;;;;;;;5019435;28;20206;-63
2022/10/06 13:23:07;;;;;;;1.35;0.80;;;;;;;;;;5000277;28;20276;-64
2022/10/06 13:25:43;;;;;;;2.15;0.98;;;;;;;;;;5024214;28;20210;-64
2022/10/06 13:28:24;;;;;;;1.88;0.90;;;;;;;;;;5018245;28;20280;-64
2022/10/06 13:31:00;;;;;;;3.13;0.90;;;;;;;;;;5034316;28;20202;-62
2022/10/06 13:33:35;;;;;;;1.55;0.95;;;;;;;;;;5025392;28;20233;-64
2022/10/06 13:36:02;;;;;;;2.00;1.10;;;;;;;;;;5039146;28;20289;-53
2022/10/06 13:38:33;;;;;;;3.10;1.00;;;;;;;;;;5024799;28;20312;-50
2022/10/06 13:41:07;;;;;;;2.03;0.90;;;;;;;;;;5020208;28;20286;-55
2022/10/06 13:43:39;;;;;;;1.50;1.00;;;;;;;;;;5028711;28;20254;-53
2022/10/06 13:46:07;;;;;;;3.22;1.33;;;;;;;;;;5024785;28;20291;-52
2022/10/06 13:48:34;;;;;;;3.30;1.10;;;;;;;;;;5027673;28;20209;-54
2022/10/06 13:51:02;;;;;;;2.08;1.00;;;;;;;;;;5023284;28;20235;-51
2022/10/06 13:53:32;;;;;;;2.15;0.90;;;;;;;;;;5025336;28;20259;-53
2022/10/06 13:55:58;;;;;;;1.48;0.90;;;;;;;;;;5025694;28;20281;-54
2022/10/06 13:58:27;;;;;;;1.55;0.98;;;;;;;;;;5026811;28;20223;-52
2022/10/06 14:00:59;;;;;;;1.52;0.73;;;;;;;;;;5026057;28;20289;-53
2022/10/06 14:03:34;;;;;;;1.70;0.90;;;;;;;;;;5022272;28;20238;-52
2022/10/06 14:06:16;;;;;;;2.65;1.10;;;;;;;;;;5018661;28;20210;-49
2022/10/06 14:08:45;;;;;;;1.83;1.00;;;;;;;;;;5023723;28;20298;-53
2022/10/06 14:11:12;;;;;;;3.67;1.20;;;;;;;;;;5023900;28;20231;-61
2022/10/06 14:13:47;;;;;;;1.80;0.80;;;;;;;;;;5023842;28;20226;-61
2022/10/06 14:16:24;;;;;;;2.00;0.90;;;;;;;;;;5028321;28;20294;-61
2022/10/06 14:18:57;;;;;;;2.80;0.80;;;;;;;;;;5022453;28;20222;-56
2022/10/06 14:21:40;;;;;;;2.08;0.77;;;;;;;;;;5024102;28;20261;-57
2022/10/06 14:24:15;;;;;;;1.60;0.80;;;;;;;;;;5021156;28;20486;-59
2022/10/06 14:26:43;;;;;;;1.90;0.82;;;;;;;;;;5017556;28;20253;-61
2022/10/06 14:29:09;;;;;;;1.20;0.70;;;;;;;;;;5023371;28;20326;-57
2022/10/06 14:31:36;;;;;;;1.52;0.95;;;;;;;;;;5023044;28;20206;-59
2022/10/06 14:34:03;;;;;;;2.17;0.80;;;;;;;;;;5020625;28;20231;-57
2022/10/06 14:36:31;;;;;;;1.50;0.80;;;;;;;;;;5019900;28;20393;-56
2022/10/06 14:38:58;;;;;;;2.72;0.80;;;;;;;;;;5016592;28;20220;-58
2022/10/06 14:41:27;;;;;;;2.80;0.77;;;;;;;;;;5034393;28;20393;-61
2022/10/06 14:43:55;;;;;;;1.92;0.90;;;;;;;;;;5027237;28;20958;-60
2022/10/06 14:46:23;;;;;;;2.33;0.70;;;;;;;;;;5025547;28;20245;-59
2022/10/06 14:48:50;;;;;;;2.63;0.80;;;;;;;;;;5027047;28;20211;-59
2022/10/06 14:51:17;;;;;;;1.50;0.80;;;;;;;;;;5025338;28;20210;-58
2022/10/06 14:53:53;;;;;;;3.63;1.00;;;;;;;;;;5025044;28;20305;-58
2022/10/06 14:56:21;;;;;;;2.17;0.90;;;;;;;;;;5026330;28;20292;-61
2022/10/06 14:58:49;;;;;;;2.70;0.82;;;;;;;;;;5028514;28;20309;-58
2022/10/06 15:01:16;;;;;;;2.03;0.77;;;;;;;;;;5028391;28;20222;-57
2022/10/06 15:03:49;;;;;;;1.90;0.73;;;;;;;;;;5025480;28;20219;-57
2022/10/06 15:09:00;;;;;;;2.42;0.90;;;;;;;;;;5030037;28;20226;-62
2022/10/06 15:11:27;;;;;;;2.38;0.80;;;;;;;;;;5028298;28;20226;-60
2022/10/06 15:13:56;;;;;;;1.55;0.90;;;;;;;;;;5024931;28;20309;-50
2022/10/06 15:16:22;;;;;;;3.20;0.98;;;;;;;;;;5040588;28;20294;-51
2022/10/06 15:18:50;;;;;;;2.88;1.10;;;;;;;;;;5017163;28;20229;-51
2022/10/06 15:21:17;;;;;;;2.15;0.90;;;;;;;;;;5026112;28;20381;-51
2022/10/06 15:23:44;;;;;;;1.52;0.70;;;;;;;;;;5021503;28;20252;-47
2022/10/06 15:29:04;;;;;;;1.63;0.77;;;;;;;;;;5024992;28;20314;-51